Wausau, WI

7:14 AM CST on January 20, 2017 (GMT -0600)
NorthWest Wausau, near NTC | | Change Station
Active Advisory: Freezing Rain Advisory

Elev 1230 ft 44.98 °N, 89.65 °W | Updated 9 seconds ago

Overcast
Overcast
34.7 °F
Feels Like 35 °F
N
0.0
Wind Variable Wind from East
Gusts 0.0 mph

Today
High -- | Low -- °F
--% Chance of Precip.
Yesterday
High -- | Low -- °F
Precip. -- in
Pressure 29.73 in
Visibility 3.0 miles
Clouds Overcast 4900 ft
Windchill 35 °F
Dew Point 34 °F
Humidity 99%
Rainfall 0.00 in
Snow Depth Not available.
7:29 AM 4:50 PM
Last Quarter, 44% visible
METAR KAUW 201254Z AUTO 08006KT 3SM UP BR OVC049 00/M01 A2968 RMK AO2 UPB39FZRAE39 SLP066 P0005 I1000 T00001006
Pressure 29.73 in
Visibility 3.0 miles
Clouds Overcast 4900 ft
Windchill 35 °F
Dew Point 34 °F
Humidity 99%
Rainfall 0.00 in
Snow Depth Not available.
7:29 AM 4:50 PM
Last Quarter, 44% visible
METAR KAUW 201254Z AUTO 08006KT 3SM UP BR OVC049 00/M01 A2968 RMK AO2 UPB39FZRAE39 SLP066 P0005 I1000 T00001006

Get Your Daily Forecast Email!

Thanks for signing up!

Be on the lookout for a verification email in your inbox.

You'll start receiving the daily forecast at 8 AM.

×

10-Day Weather Forecast

Almanac

Astronomy

Jan. 20, 2017 Rise Set
Actual Time
Civil Twilight
Nautical Twilight
Astronomical Twilight
Moon
Length of Visible Light
Length of Day
Tomorrow will be .
, % of the Moon is Illuminated

Today's Extremes

State Highs State Lows

Community

WunderPhotos

Upload Photos

1,962,540 photos uploaded!

WunderBlog® & News

Nearby

Air Quality

  Air Quality AQ Index Pollutant
Not available.

Snow Depth

Station Depth Elevation

Earthquake Activity

City Distance Mag. Time & Date
Minimum magnitude displayed is 2.5.

Coastal Water Temperatures

Place Temperature

Stations

Nearby Weather Stations

Station Location Temp. Windchill Dew Point Humidity Wind Precip. Elev Updated Type
                   

Watches & Warnings

Freezing Rain Advisory
Issued: 6:37 AM CST Jan. 20, 2017 – National Weather Service

... Freezing Rain Advisory remains in effect until 10 am CST this
morning...

* freezing rain will continue this morning... then begin to taper
off late morning as the band of mixed precipitation lifts north
and temperatures rise a few degrees above freezing.

* Total ice accumulations of up to 2/10 of an inch are expected
in some locations.

* The ice will result in difficult travel conditions... including
during the morning commute on Friday.

Precautionary/preparedness actions...

A Freezing Rain Advisory means that periods of freezing rain or
freezing drizzle will cause travel difficulties. Be prepared for
slippery roads. Slow down and use extra caution while driving.
The latest Wisconsin Road conditions can be obtained by calling
511.